createdAt,value
2023-05-15T00:02:07.352Z,99554.94
2023-05-15T00:05:09.498Z,99556.56
2023-05-15T00:08:11.536Z,99555.34
2023-05-15T00:11:13.537Z,99547.41
2023-05-15T00:14:15.394Z,99553.44
2023-05-15T00:17:17.301Z,99544.53
2023-05-15T00:20:19.219Z,99553.78
2023-05-15T00:23:21.175Z,99554.34
2023-05-15T00:26:23.505Z,99560.22
2023-05-15T00:29:25.358Z,99560.41
2023-05-15T00:32:27.366Z,99567.28
2023-05-15T00:35:29.340Z,99560.03
2023-05-15T00:38:33.781Z,99567.09
2023-05-15T00:41:37.013Z,99571.66
2023-05-15T00:44:41.590Z,99560.41
2023-05-15T00:47:43.983Z,99567.50
2023-05-15T00:50:45.930Z,99562.84
2023-05-15T00:53:47.913Z,99560.50
2023-05-15T00:56:51.624Z,99564.06
2023-05-15T00:59:56.873Z,99564.94
2023-05-15T01:03:00.072Z,99554.22
2023-05-15T01:06:02.418Z,99564.69
2023-05-15T01:09:05.650Z,99555.94
2023-05-15T01:12:09.885Z,99549.25
2023-05-15T01:15:11.876Z,99547.06
2023-05-15T01:18:13.774Z,99547.59
2023-05-15T01:21:57.841Z,99551.47
2023-05-15T01:25:37.100Z,99548.13
2023-05-15T01:28:46.195Z,99552.00
2023-05-15T01:31:57.219Z,99554.69
2023-05-15T01:35:27.661Z,99547.97
2023-05-15T01:38:39.993Z,99548.50
2023-05-15T01:41:43.140Z,99550.22
2023-05-15T01:45:06.017Z,99552.41
2023-05-15T01:48:09.271Z,99562.00
2023-05-15T01:51:13.725Z,99564.00
2023-05-15T01:54:18.492Z,99556.28
2023-05-15T01:57:25.165Z,99551.44
2023-05-15T02:00:27.353Z,99557.81
2023-05-15T02:03:34.620Z,99560.69
2023-05-15T02:06:37.457Z,99557.16
2023-05-15T02:09:40.224Z,99565.22
2023-05-15T02:12:42.873Z,99567.22
2023-05-15T02:15:44.797Z,99565.72
2023-05-15T02:18:49.624Z,99574.63
2023-05-15T02:21:51.510Z,99565.22
2023-05-15T02:24:53.487Z,99565.56
2023-05-15T02:28:00.164Z,99567.91
2023-05-15T02:31:07.661Z,99557.81
2023-05-15T02:34:32.749Z,99557.66
2023-05-15T02:37:38.299Z,99559.81
2023-05-15T02:40:40.902Z,99559.31
2023-05-15T02:43:44.487Z,99559.63
2023-05-15T02:46:48.310Z,99556.41
2023-05-15T02:49:52.053Z,99562.59
2023-05-15T02:53:05.184Z,99562.22
2023-05-15T02:56:07.268Z,99554.63
2023-05-15T02:59:09.271Z,99556.22
2023-05-15T03:02:11.218Z,99557.97
2023-05-15T03:05:13.166Z,99563.44
2023-05-15T03:08:15.227Z,99570.13
2023-05-15T03:11:19.326Z,99572.22
2023-05-15T03:14:21.219Z,99569.13
2023-05-15T03:17:23.105Z,99567.84
2023-05-15T03:20:25.343Z,99569.94
2023-05-15T03:23:27.263Z,99577.59
2023-05-15T03:26:29.165Z,99573.63
2023-05-15T03:29:31.234Z,99578.19
2023-05-15T03:32:33.361Z,99580.06
2023-05-15T03:35:36.218Z,99578.41
2023-05-15T03:38:38.202Z,99589.88
2023-05-15T03:41:40.128Z,99587.00
2023-05-15T03:44:42.005Z,99586.41
2023-05-15T03:47:44.020Z,99590.84
2023-05-15T03:50:46.283Z,99596.34
2023-05-15T03:53:48.216Z,99592.88
2023-05-15T03:56:50.167Z,99589.81
2023-05-15T03:59:52.011Z,99594.88
2023-05-15T04:02:53.970Z,99599.34
2023-05-15T04:05:55.941Z,99590.53
2023-05-15T04:08:57.807Z,99599.59
2023-05-15T04:11:59.685Z,99594.47
2023-05-15T04:15:18.211Z,99591.34
2023-05-15T04:18:20.103Z,99587.75
2023-05-15T04:21:21.977Z,99587.72
2023-05-15T04:24:23.791Z,99595.13
2023-05-15T04:27:26.829Z,99588.50
2023-05-15T04:30:28.725Z,99595.91
2023-05-15T04:33:30.845Z,99592.56
2023-05-15T04:36:32.786Z,99587.91
2023-05-15T04:39:34.674Z,99596.47
2023-05-15T04:42:39.121Z,99589.91
2023-05-15T04:45:41.643Z,99592.97
2023-05-15T04:48:43.506Z,99590.72
2023-05-15T04:51:45.467Z,99589.66
2023-05-15T04:54:49.694Z,99593.31
2023-05-15T04:57:51.681Z,99593.25
2023-05-15T05:00:53.887Z,99590.22
2023-05-15T05:03:55.930Z,99591.78
2023-05-15T05:06:57.836Z,99601.63
2023-05-15T05:09:59.874Z,99601.16
2023-05-15T05:13:01.734Z,99609.06
2023-05-15T05:16:03.828Z,99609.47
2023-05-15T05:19:06.730Z,99604.28
2023-05-15T05:22:08.889Z,99610.19
2023-05-15T05:25:11.001Z,99601.84
2023-05-15T05:28:12.835Z,99611.00
2023-05-15T05:31:15.118Z,99605.44
2023-05-15T05:34:17.228Z,99598.63
2023-05-15T05:37:19.153Z,99602.56
2023-05-15T05:40:21.026Z,99605.59
2023-05-15T05:43:22.927Z,99602.66
2023-05-15T05:46:24.852Z,99602.06
2023-05-15T05:49:26.809Z,99606.44
2023-05-15T05:52:29.466Z,99607.22
2023-05-15T05:55:31.403Z,99611.50
2023-05-15T05:58:33.497Z,99615.47
2023-05-15T06:01:35.532Z,99606.81
2023-05-15T06:04:37.420Z,99615.94
2023-05-15T06:07:39.562Z,99610.34
2023-05-15T06:10:42.442Z,99615.94
2023-05-15T06:13:44.511Z,99620.81
2023-05-15T06:16:46.428Z,99615.31
2023-05-15T06:19:48.452Z,99610.44
2023-05-15T06:22:50.398Z,99613.63
2023-05-15T06:25:52.454Z,99612.06
2023-05-15T06:28:54.353Z,99611.50
2023-05-15T06:31:56.408Z,99606.91
2023-05-15T06:34:58.393Z,99606.44
2023-05-15T06:38:00.316Z,99611.75
2023-05-15T06:41:02.255Z,99614.03
2023-05-15T06:44:04.762Z,99614.84
2023-05-15T06:47:07.122Z,99618.94
2023-05-15T06:50:09.718Z,99620.84
2023-05-15T06:53:13.709Z,99619.50
2023-05-15T06:56:16.383Z,99619.44
2023-05-15T06:59:18.363Z,99628.34
2023-05-15T07:02:20.365Z,99627.31
2023-05-15T07:05:22.316Z,99623.78
2023-05-15T07:08:24.373Z,99629.34
2023-05-15T07:11:27.082Z,99627.69
2023-05-15T07:14:29.027Z,99615.00
2023-05-15T07:17:32.412Z,99629.34
2023-05-15T07:20:35.169Z,99634.31
2023-05-15T07:23:37.298Z,99622.22
2023-05-15T07:26:50.273Z,99627.19
2023-05-15T07:29:59.214Z,99629.94
2023-05-15T07:33:01.314Z,99620.84
2023-05-15T07:36:03.307Z,99611.47
2023-05-15T07:39:05.182Z,99608.44
2023-05-15T07:42:07.156Z,99610.09
2023-05-15T07:45:09.522Z,99604.56
2023-05-15T07:48:16.579Z,99598.75
2023-05-15T07:51:18.470Z,99597.38
2023-05-15T07:54:20.922Z,99601.53
2023-05-15T07:57:23.246Z,99602.88
2023-05-15T08:00:25.193Z,99597.13
2023-05-15T08:03:27.142Z,99599.91
2023-05-15T08:06:29.061Z,99593.50
2023-05-15T08:09:30.907Z,99599.28
2023-05-15T08:12:33.130Z,99605.56
2023-05-15T08:15:35.089Z,99589.28
2023-05-15T08:18:37.037Z,99590.16
2023-05-15T08:21:39.444Z,99600.84
2023-05-15T08:24:42.035Z,99589.75
2023-05-15T08:27:43.992Z,99585.53
2023-05-15T08:30:46.028Z,99590.78
2023-05-15T08:33:47.910Z,99591.59
2023-05-15T08:36:49.825Z,99591.50
2023-05-15T08:39:51.610Z,99584.13
2023-05-15T08:42:55.700Z,99591.84
2023-05-15T08:45:58.314Z,99587.41
2023-05-15T08:49:11.636Z,99572.81
2023-05-15T08:52:13.833Z,99579.41
2023-05-15T08:55:16.990Z,99575.94
2023-05-15T08:58:21.650Z,99575.28
2023-05-15T09:01:24.242Z,99581.44
2023-05-15T09:04:26.258Z,99575.91
2023-05-15T09:07:30.416Z,99566.19
2023-05-15T09:10:33.785Z,99565.75
2023-05-15T09:13:35.751Z,99571.63
2023-05-15T09:16:38.260Z,99562.63
2023-05-15T09:19:40.592Z,99566.19
2023-05-15T09:22:42.516Z,99558.47
2023-05-15T09:25:52.916Z,99555.03
2023-05-15T09:29:02.832Z,99546.53
2023-05-15T09:32:10.097Z,99553.00
2023-05-15T09:35:31.063Z,99549.94
2023-05-15T09:38:35.089Z,99550.59
2023-05-15T09:41:43.887Z,99546.66
2023-05-15T09:44:46.497Z,99538.25
2023-05-15T09:47:48.686Z,99535.88
2023-05-15T09:50:50.824Z,99542.16
2023-05-15T09:53:54.312Z,99542.56
2023-05-15T09:56:57.524Z,99534.47
2023-05-15T10:00:10.397Z,99537.88
2023-05-15T10:03:14.621Z,99537.25
2023-05-15T10:06:19.099Z,99543.28
2023-05-15T10:09:22.199Z,99537.63
2023-05-15T10:12:27.960Z,99531.91
2023-05-15T10:15:30.429Z,99539.94
2023-05-15T10:18:36.057Z,99540.56
2023-05-15T10:21:40.259Z,99535.47
2023-05-15T10:24:45.062Z,99533.34
2023-05-15T10:27:48.172Z,99524.13
2023-05-15T10:30:50.782Z,99527.19
2023-05-15T10:33:55.411Z,99531.72
2023-05-15T10:36:57.860Z,99517.75
2023-05-15T10:40:01.674Z,99516.91
2023-05-15T10:43:04.218Z,99515.34
2023-05-15T10:46:06.888Z,99515.72
2023-05-15T10:49:09.044Z,99519.88
2023-05-15T10:52:10.999Z,99527.44
2023-05-15T10:55:18.077Z,99519.94
2023-05-15T10:58:24.136Z,99526.47
2023-05-15T11:01:32.000Z,99532.09
2023-05-15T11:04:35.241Z,99527.09
2023-05-15T11:07:37.316Z,99526.34
2023-05-15T11:10:39.620Z,99523.56
2023-05-15T11:14:20.158Z,99524.63
2023-05-15T11:17:24.874Z,99517.06
2023-05-15T11:20:49.789Z,99511.94
2023-05-15T11:24:04.394Z,99514.59
2023-05-15T11:27:06.298Z,99514.28
2023-05-15T11:30:08.611Z,99504.25
2023-05-15T11:33:11.534Z,99513.06
2023-05-15T11:36:15.950Z,99521.00
2023-05-15T11:39:17.830Z,99511.50
2023-05-15T11:42:19.670Z,99522.38
2023-05-15T11:45:22.808Z,99509.09
2023-05-15T11:48:27.867Z,99514.50
2023-05-15T11:51:30.286Z,99508.00
2023-05-15T11:54:32.513Z,99509.28
2023-05-15T11:57:34.316Z,99511.81
2023-05-15T12:00:36.277Z,99506.97
2023-05-15T12:03:38.502Z,99510.53
2023-05-15T12:06:41.549Z,99500.34
2023-05-15T12:09:44.175Z,99504.38
2023-05-15T12:12:46.489Z,99509.41
2023-05-15T12:15:48.570Z,99502.13
2023-05-15T12:18:50.613Z,99492.94
2023-05-15T12:21:52.543Z,99493.41
2023-05-15T12:24:58.884Z,99506.84
2023-05-15T12:28:03.121Z,99499.28
2023-05-15T12:31:05.450Z,99497.19
2023-05-15T12:34:07.564Z,99500.09
2023-05-15T12:37:15.203Z,99487.78
2023-05-15T12:40:21.395Z,99493.13
2023-05-15T12:43:26.618Z,99496.09
2023-05-15T12:46:32.168Z,99492.34
2023-05-15T12:49:36.907Z,99486.69
2023-05-15T12:52:38.779Z,99484.91
2023-05-15T12:55:41.004Z,99494.16
2023-05-15T12:58:43.122Z,99488.63
2023-05-15T13:01:45.381Z,99487.50
2023-05-15T13:04:47.473Z,99479.28
2023-05-15T13:07:49.537Z,99482.44
2023-05-15T13:10:59.275Z,99482.69
2023-05-15T13:14:01.335Z,99475.47
2023-05-15T13:17:03.527Z,99483.09
2023-05-15T13:20:06.520Z,99476.03
2023-05-15T13:23:10.604Z,99471.44
2023-05-15T13:26:12.482Z,99469.63
2023-05-15T13:29:14.406Z,99471.22
2023-05-15T13:32:16.332Z,99464.09
2023-05-15T13:35:18.464Z,99455.47
2023-05-15T13:38:20.923Z,99461.84
2023-05-15T13:41:22.903Z,99463.09
2023-05-15T13:44:24.827Z,99457.25
2023-05-15T13:47:27.032Z,99450.03
2023-05-15T13:50:29.021Z,99459.06
2023-05-15T13:53:30.896Z,99453.28
2023-05-15T13:56:32.688Z,99463.81
2023-05-15T13:59:34.535Z,99460.78
2023-05-15T14:02:36.354Z,99460.19
2023-05-15T14:05:38.451Z,99456.47
2023-05-15T14:08:40.411Z,99454.84
2023-05-15T14:11:42.318Z,99455.06
2023-05-15T14:14:45.959Z,99461.56
2023-05-15T14:17:48.893Z,99454.31
2023-05-15T14:20:50.895Z,99460.50
2023-05-15T14:23:52.754Z,99457.72
2023-05-15T14:26:54.488Z,99447.50
2023-05-15T14:29:59.448Z,99448.91
2023-05-15T14:33:01.431Z,99451.69
2023-05-15T14:36:04.684Z,99439.97
2023-05-15T14:39:06.690Z,99441.56
2023-05-15T14:42:08.619Z,99452.09
2023-05-15T14:45:10.584Z,99457.47
2023-05-15T14:48:12.570Z,99451.13
2023-05-15T14:51:14.490Z,99451.97
2023-05-15T14:54:16.423Z,99457.53
2023-05-15T14:57:20.469Z,99449.84
2023-05-15T15:00:22.443Z,99450.16
2023-05-15T15:03:25.768Z,99448.47
2023-05-15T15:06:29.501Z,99452.63
2023-05-15T15:09:31.387Z,99456.19
2023-05-15T15:12:34.276Z,99458.13
2023-05-15T15:15:37.403Z,99457.06
2023-05-15T15:18:39.399Z,99456.00
2023-05-15T15:21:41.312Z,99462.06
2023-05-15T15:24:43.141Z,99470.09
2023-05-15T15:27:46.432Z,99462.69
2023-05-15T15:30:48.357Z,99472.84
2023-05-15T15:33:50.134Z,99471.44
2023-05-15T15:36:52.078Z,99470.25
2023-05-15T15:39:53.797Z,99472.66
2023-05-15T15:42:55.765Z,99466.03
2023-05-15T15:45:57.667Z,99467.88
2023-05-15T15:49:00.346Z,99472.78
2023-05-15T15:52:02.374Z,99474.00
2023-05-15T15:55:04.309Z,99473.66
2023-05-15T15:58:06.288Z,99470.81
2023-05-15T16:01:08.219Z,99477.56
2023-05-15T16:04:10.229Z,99473.03
2023-05-15T16:07:12.448Z,99475.69
2023-05-15T16:10:14.570Z,99476.69
2023-05-15T16:13:16.602Z,99471.63
2023-05-15T16:16:18.693Z,99474.22
2023-05-15T16:19:21.361Z,99490.53
2023-05-15T16:22:23.206Z,99485.75
2023-05-15T16:25:25.273Z,99484.81
2023-05-15T16:28:27.133Z,99482.72
2023-05-15T16:31:29.082Z,99491.66
2023-05-15T16:34:31.095Z,99494.75
2023-05-15T16:37:32.913Z,99494.88
2023-05-15T16:40:34.744Z,99491.13
2023-05-15T16:43:38.259Z,99490.91
2023-05-15T16:46:40.225Z,99492.66
2023-05-15T16:49:44.273Z,99493.50
2023-05-15T16:52:47.815Z,99505.25
2023-05-15T16:55:49.838Z,99509.03
2023-05-15T16:58:53.667Z,99503.53
2023-05-15T17:01:55.577Z,99513.34
2023-05-15T17:04:57.490Z,99502.59
2023-05-15T17:08:00.329Z,99500.03
2023-05-15T17:11:02.181Z,99499.34
2023-05-15T17:14:04.115Z,99514.00
2023-05-15T17:17:06.066Z,99516.63
2023-05-15T17:20:08.815Z,99527.38
2023-05-15T17:23:10.739Z,99527.72
2023-05-15T17:26:12.642Z,99524.13
2023-05-15T17:29:14.563Z,99532.63
2023-05-15T17:32:17.516Z,99536.19
2023-05-15T17:35:19.601Z,99537.91
2023-05-15T17:38:21.488Z,99545.06
2023-05-15T17:41:23.410Z,99542.38
2023-05-15T17:44:28.113Z,99538.38
2023-05-15T17:47:30.086Z,99532.84
2023-05-15T17:50:32.103Z,99529.16
2023-05-15T17:53:34.070Z,99532.47
2023-05-15T17:56:36.051Z,99534.09
2023-05-15T17:59:38.016Z,99525.59
2023-05-15T18:02:39.937Z,99527.00
2023-05-15T18:05:41.807Z,99535.88
2023-05-15T18:08:47.617Z,99529.22
2023-05-15T18:11:49.530Z,99535.34
2023-05-15T18:14:52.868Z,99536.44
2023-05-15T18:17:54.833Z,99535.88
2023-05-15T18:20:56.842Z,99536.56
2023-05-15T18:23:58.764Z,99527.63
2023-05-15T18:27:01.325Z,99535.41
2023-05-15T18:30:03.310Z,99534.59
2023-05-15T18:33:05.295Z,99541.94
2023-05-15T18:36:08.351Z,99538.84
2023-05-15T18:39:10.268Z,99546.78
2023-05-15T18:42:12.208Z,99539.09
2023-05-15T18:45:14.099Z,99545.78
2023-05-15T18:48:16.018Z,99545.00
2023-05-15T18:51:19.283Z,99541.03
2023-05-15T18:54:21.180Z,99546.47
2023-05-15T18:57:23.056Z,99549.63
2023-05-15T19:00:37.069Z,99550.88
2023-05-15T19:03:39.552Z,99552.91
2023-05-15T19:06:44.521Z,99550.19
2023-05-15T19:09:46.490Z,99551.03
2023-05-15T19:12:48.443Z,99551.00
2023-05-15T19:15:53.936Z,99559.34
2023-05-15T19:18:56.019Z,99554.34
2023-05-15T19:21:58.137Z,99552.47
2023-05-15T19:25:00.177Z,99551.84
2023-05-15T19:28:02.065Z,99544.94
2023-05-15T19:31:11.774Z,99557.66
2023-05-15T19:34:19.213Z,99561.81
2023-05-15T19:37:21.142Z,99563.06
2023-05-15T19:40:22.998Z,99552.84
2023-05-15T19:43:24.905Z,99558.25
2023-05-15T19:46:26.780Z,99549.25
2023-05-15T19:49:28.960Z,99550.91
2023-05-15T19:52:30.824Z,99552.75
2023-05-15T19:55:32.905Z,99545.44
2023-05-15T19:58:34.850Z,99546.25
2023-05-15T20:01:36.794Z,99547.69
2023-05-15T20:04:38.792Z,99558.50
2023-05-15T20:07:41.118Z,99560.31
2023-05-15T20:10:43.109Z,99566.50
2023-05-15T20:13:45.649Z,99564.16
2023-05-15T20:16:47.561Z,99569.09
2023-05-15T20:19:49.654Z,99565.72
2023-05-15T20:22:51.736Z,99566.72
2023-05-15T20:25:54.618Z,99564.78
2023-05-15T20:28:56.593Z,99565.97
2023-05-15T20:31:59.607Z,99562.19
2023-05-15T20:35:01.750Z,99561.75
2023-05-15T20:38:04.461Z,99561.31
2023-05-15T20:41:06.933Z,99563.75
2023-05-15T20:44:08.873Z,99570.97
2023-05-15T20:47:10.864Z,99567.19
2023-05-15T20:50:12.819Z,99572.53
2023-05-15T20:53:14.705Z,99564.19
2023-05-15T20:56:16.640Z,99575.41
2023-05-15T20:59:18.473Z,99580.91
2023-05-15T21:02:20.340Z,99574.41
2023-05-15T21:05:22.377Z,99573.88
2023-05-15T21:08:24.343Z,99575.31
2023-05-15T21:11:26.357Z,99577.09
2023-05-15T21:14:28.259Z,99577.88
2023-05-15T21:17:30.490Z,99573.22
2023-05-15T21:20:34.905Z,99577.34
2023-05-15T21:23:37.191Z,99576.88
2023-05-15T21:26:39.134Z,99571.66
2023-05-15T21:29:41.049Z,99577.06
2023-05-15T21:32:42.932Z,99577.19
2023-05-15T21:35:45.456Z,99578.38
2023-05-15T21:38:47.593Z,99582.94
2023-05-15T21:41:51.287Z,99588.34
2023-05-15T21:44:53.100Z,99594.41
2023-05-15T21:47:55.067Z,99586.69
2023-05-15T21:50:57.762Z,99586.03
2023-05-15T21:53:59.661Z,99582.03
2023-05-15T21:57:01.584Z,99587.81
2023-05-15T22:00:06.918Z,99586.97
2023-05-15T22:03:08.782Z,99593.22
2023-05-15T22:06:11.007Z,99585.75
2023-05-15T22:09:12.878Z,99592.66
2023-05-15T22:12:14.754Z,99597.84
2023-05-15T22:15:17.116Z,99604.53
2023-05-15T22:18:19.067Z,99594.47
2023-05-15T22:21:21.086Z,99594.81
2023-05-15T22:24:23.126Z,99596.38
2023-05-15T22:27:25.024Z,99595.25
2023-05-15T22:30:27.141Z,99600.53
2023-05-15T22:33:29.619Z,99601.16
2023-05-15T22:36:32.140Z,99604.97
2023-05-15T22:39:34.271Z,99601.03
2023-05-15T22:42:36.312Z,99596.09
2023-05-15T22:45:38.472Z,99604.47
2023-05-15T22:48:41.506Z,99592.63
2023-05-15T22:51:44.754Z,99598.91
2023-05-15T22:54:46.690Z,99596.03
2023-05-15T22:57:48.791Z,99596.28
2023-05-15T23:00:50.934Z,99608.75
2023-05-15T23:03:52.895Z,99593.38
2023-05-15T23:06:55.825Z,99590.47
2023-05-15T23:09:57.857Z,99591.53
2023-05-15T23:12:59.638Z,99592.75
2023-05-15T23:16:01.568Z,99584.44
2023-05-15T23:19:04.239Z,99575.50
2023-05-15T23:22:06.538Z,99579.22
2023-05-15T23:25:08.935Z,99579.63
2023-05-15T23:28:11.105Z,99583.53
2023-05-15T23:31:14.130Z,99572.72
2023-05-15T23:34:16.242Z,99571.69
2023-05-15T23:37:18.488Z,99577.44
2023-05-15T23:40:20.453Z,99573.25
2023-05-15T23:43:22.451Z,99562.00
2023-05-15T23:46:24.509Z,99568.63
2023-05-15T23:49:26.540Z,99572.53
2023-05-15T23:52:28.510Z,99573.13
2023-05-15T23:55:30.439Z,99567.28
2023-05-15T23:58:32.341Z,99570.75
